createdAt,value
2019-03-28T00:02:10.359Z,97900.20
2019-03-28T00:04:38.870Z,97901.97
2019-03-28T00:07:07.444Z,97903.27
2019-03-28T00:09:36.407Z,97901.56
2019-03-28T00:12:04.551Z,97901.75
2019-03-28T00:14:33.255Z,97901.42
2019-03-28T00:17:03.803Z,97898.19
2019-03-28T00:19:31.805Z,97905.44
2019-03-28T00:22:01.078Z,97894.41
2019-03-28T00:24:34.181Z,97903.41
2019-03-28T00:27:02.186Z,97895.61
2019-03-28T00:29:30.793Z,97892.40
2019-03-28T00:31:58.818Z,97893.98
2019-03-28T00:34:27.434Z,97889.61
2019-03-28T00:36:56.534Z,97892.81
2019-03-28T00:39:24.513Z,97894.63
2019-03-28T00:41:52.479Z,97896.78
2019-03-28T00:44:20.273Z,97898.63
2019-03-28T00:46:49.321Z,97903.98
2019-03-28T00:49:18.265Z,97899.48
2019-03-28T00:51:47.185Z,97907.45
2019-03-28T00:54:15.288Z,97904.89
2019-03-28T00:56:47.354Z,97901.44
2019-03-28T00:59:13.384Z,97908.97
2019-03-28T01:01:41.210Z,97904.27
2019-03-28T01:04:09.683Z,97904.77
2019-03-28T01:06:37.800Z,97900.68
2019-03-28T01:09:08.649Z,97901.19
2019-03-28T01:11:37.155Z,97910.08
2019-03-28T01:14:06.364Z,97901.66
2019-03-28T01:16:34.428Z,97897.98
2019-03-28T01:19:02.978Z,97897.02
2019-03-28T01:21:31.413Z,97905.44
2019-03-28T01:24:00.320Z,97908.97
2019-03-28T01:26:28.536Z,97903.30
2019-03-28T01:28:56.295Z,97905.57
2019-03-28T01:31:25.101Z,97900.81
2019-03-28T01:33:53.754Z,97901.58
2019-03-28T01:36:21.809Z,97904.27
2019-03-28T01:38:50.507Z,97904.52
2019-03-28T01:41:18.516Z,97899.55
2019-03-28T01:43:47.045Z,97898.52
2019-03-28T01:46:15.878Z,97900.36
2019-03-28T01:48:44.257Z,97895.83
2019-03-28T01:51:12.612Z,97894.32
2019-03-28T01:53:40.954Z,97889.78
2019-03-28T01:56:09.118Z,97889.45
2019-03-28T01:58:37.247Z,97885.28
2019-03-28T02:01:05.271Z,97882.34
2019-03-28T02:03:33.074Z,97878.30
2019-03-28T02:06:01.025Z,97874.47
2019-03-28T02:08:29.887Z,97876.16
2019-03-28T02:10:58.099Z,97877.38
2019-03-28T02:13:27.134Z,97885.66
2019-03-28T02:15:55.560Z,97886.27
2019-03-28T02:18:24.372Z,97879.41
2019-03-28T02:20:52.747Z,97875.66
2019-03-28T02:23:21.108Z,97879.16
2019-03-28T02:25:49.170Z,97880.92
2019-03-28T02:28:17.926Z,97880.34
2019-03-28T02:30:46.999Z,97880.17
2019-03-28T02:33:14.890Z,97874.49
2019-03-28T02:35:44.131Z,97880.09
2019-03-28T02:38:12.685Z,97881.39
2019-03-28T02:40:42.703Z,97876.77
2019-03-28T02:43:11.092Z,97878.92
2019-03-28T02:45:40.861Z,97881.98
2019-03-28T02:48:08.838Z,97878.58
2019-03-28T02:50:37.841Z,97882.83
2019-03-28T02:53:07.077Z,97878.92
2019-03-28T02:55:36.400Z,97880.17
2019-03-28T02:58:05.743Z,97879.12
2019-03-28T03:00:35.038Z,97882.23
2019-03-28T03:03:03.858Z,97881.64
2019-03-28T03:05:33.454Z,97888.97
2019-03-28T03:08:02.356Z,97887.66
2019-03-28T03:10:30.974Z,97882.95
2019-03-28T03:13:00.869Z,97884.01
2019-03-28T03:15:30.327Z,97891.95
2019-03-28T03:17:58.528Z,97890.53
2019-03-28T03:20:28.015Z,97888.50
2019-03-28T03:22:56.063Z,97891.57
2019-03-28T03:25:24.532Z,97887.70
2019-03-28T03:27:58.593Z,97884.13
2019-03-28T03:30:23.838Z,97885.31
2019-03-28T03:32:51.972Z,97882.50
2019-03-28T03:35:19.814Z,97878.00
2019-03-28T03:37:48.109Z,97869.16
2019-03-28T03:40:17.306Z,97871.94
2019-03-28T03:42:47.539Z,97879.30
2019-03-28T03:45:15.784Z,97874.55
2019-03-28T03:47:45.784Z,97879.00
2019-03-28T03:50:35.761Z,97884.80
2019-03-28T03:53:04.034Z,97888.72
2019-03-28T03:55:32.745Z,97884.72
2019-03-28T03:58:14.331Z,97888.51
2019-03-28T04:00:32.359Z,97884.80
2019-03-28T04:03:00.954Z,97882.20
2019-03-28T04:05:30.082Z,97878.33
2019-03-28T04:08:00.285Z,97888.13
2019-03-28T04:10:28.757Z,97880.77
2019-03-28T04:12:57.551Z,97883.75
2019-03-28T04:15:25.377Z,97884.09
2019-03-28T04:17:53.635Z,97882.91
2019-03-28T04:20:21.621Z,97891.38
2019-03-28T04:22:57.153Z,97884.94
2019-03-28T04:25:25.275Z,97891.91
2019-03-28T04:27:53.676Z,97896.13
2019-03-28T04:30:23.269Z,97904.23
2019-03-28T04:32:51.148Z,97901.47
2019-03-28T04:35:19.849Z,97896.80
2019-03-28T04:37:48.088Z,97900.83
2019-03-28T04:40:16.596Z,97899.02
2019-03-28T04:42:46.016Z,97898.22
2019-03-28T04:45:14.634Z,97902.77
2019-03-28T04:47:43.383Z,97896.80
2019-03-28T04:50:11.593Z,97895.75
2019-03-28T04:52:39.702Z,97900.17
2019-03-28T04:55:08.896Z,97899.73
2019-03-28T04:57:37.003Z,97900.70
2019-03-28T05:00:07.348Z,97896.84
2019-03-28T05:02:36.777Z,97897.52
2019-03-28T05:05:04.819Z,97901.17
2019-03-28T05:07:33.854Z,97898.94
2019-03-28T05:10:01.603Z,97898.56
2019-03-28T05:12:29.964Z,97897.13
2019-03-28T05:14:57.852Z,97902.47
2019-03-28T05:17:26.199Z,97908.15
2019-03-28T05:19:54.957Z,97897.30
2019-03-28T05:22:23.057Z,97905.84
2019-03-28T05:24:50.828Z,97906.88
2019-03-28T05:27:18.773Z,97909.28
2019-03-28T05:29:48.116Z,97908.77
2019-03-28T05:32:18.781Z,97904.89
2019-03-28T05:34:47.192Z,97911.70
2019-03-28T05:37:15.179Z,97912.92
2019-03-28T05:39:43.075Z,97910.51
2019-03-28T05:42:11.230Z,97906.84
2019-03-28T05:44:39.760Z,97910.95
2019-03-28T05:47:08.208Z,97913.53
2019-03-28T05:49:36.736Z,97909.97
2019-03-28T05:52:04.871Z,97916.17
2019-03-28T05:54:33.012Z,97921.28
2019-03-28T05:57:01.253Z,97927.77
2019-03-28T05:59:30.373Z,97923.72
2019-03-28T06:01:58.508Z,97921.48
2019-03-28T06:04:26.588Z,97932.41
2019-03-28T06:06:55.515Z,97924.42
2019-03-28T06:09:23.840Z,97925.83
2019-03-28T06:11:53.044Z,97926.70
2019-03-28T06:14:21.346Z,97932.19
2019-03-28T06:16:50.014Z,97935.27
2019-03-28T06:19:18.128Z,97930.37
2019-03-28T06:21:46.229Z,97926.89
2019-03-28T06:24:14.486Z,97934.92
2019-03-28T06:26:43.359Z,97934.45
2019-03-28T06:29:23.137Z,97932.91
2019-03-28T06:31:54.311Z,97930.20
2019-03-28T06:34:11.851Z,97926.45
2019-03-28T06:36:40.625Z,97927.44
2019-03-28T06:39:10.864Z,97927.48
2019-03-28T06:41:39.702Z,97926.96
2019-03-28T06:44:07.940Z,97930.70
2019-03-28T06:46:36.452Z,97930.05
2019-03-28T06:49:04.566Z,97935.74
2019-03-28T06:51:32.798Z,97929.48
2019-03-28T06:54:01.003Z,97930.01
2019-03-28T06:56:29.635Z,97929.71
2019-03-28T06:58:58.016Z,97935.45
2019-03-28T07:01:26.169Z,97934.44
2019-03-28T07:03:53.954Z,97931.72
2019-03-28T07:06:23.035Z,97929.98
2019-03-28T07:08:51.660Z,97929.56
2019-03-28T07:11:19.624Z,97921.70
2019-03-28T07:13:47.688Z,97921.63
2019-03-28T07:16:16.840Z,97923.15
2019-03-28T07:18:44.789Z,97918.59
2019-03-28T07:21:14.270Z,97915.55
2019-03-28T07:23:42.351Z,97912.46
2019-03-28T07:26:10.479Z,97914.70
2019-03-28T07:28:39.390Z,97908.79
2019-03-28T07:31:08.256Z,97916.98
2019-03-28T07:33:36.882Z,97921.47
2019-03-28T07:36:05.084Z,97921.39
2019-03-28T07:38:33.351Z,97924.65
2019-03-28T07:41:01.451Z,97929.78
2019-03-28T07:43:29.528Z,97928.94
2019-03-28T07:45:57.793Z,97923.45
2019-03-28T07:48:25.776Z,97918.09
2019-03-28T07:50:53.997Z,97920.52
2019-03-28T07:53:22.307Z,97918.77
2019-03-28T07:55:50.339Z,97926.94
2019-03-28T07:58:18.423Z,97924.70
2019-03-28T08:00:46.794Z,97924.88
2019-03-28T08:03:14.801Z,97921.61
2019-03-28T08:05:43.016Z,97926.77
2019-03-28T08:08:11.234Z,97921.30
2019-03-28T08:10:39.192Z,97923.81
2019-03-28T08:13:09.557Z,97927.33
2019-03-28T08:15:37.873Z,97923.48
2019-03-28T08:18:05.975Z,97928.64
2019-03-28T08:20:34.134Z,97929.75
2019-03-28T08:23:01.965Z,97930.09
2019-03-28T08:25:31.505Z,97930.89
2019-03-28T08:27:59.852Z,97939.49
2019-03-28T08:30:34.568Z,97935.45
2019-03-28T08:33:04.908Z,97930.59
2019-03-28T08:35:36.327Z,97931.41
2019-03-28T08:38:04.692Z,97928.23
2019-03-28T08:40:34.682Z,97928.95
2019-03-28T08:43:03.314Z,97929.77
2019-03-28T08:45:31.495Z,97933.95
2019-03-28T08:47:59.624Z,97935.79
2019-03-28T08:50:27.781Z,97937.63
2019-03-28T08:52:56.899Z,97937.77
2019-03-28T08:55:25.692Z,97945.21
2019-03-28T08:57:54.273Z,97940.58
2019-03-28T09:00:32.887Z,97936.02
2019-03-28T09:02:54.917Z,97935.30
2019-03-28T09:05:23.393Z,97931.27
2019-03-28T09:07:53.242Z,97946.72
2019-03-28T09:10:21.453Z,97940.63
2019-03-28T09:12:49.560Z,97939.27
2019-03-28T09:15:18.129Z,97935.80
2019-03-28T09:17:46.459Z,97933.50
2019-03-28T09:20:14.470Z,97931.51
2019-03-28T09:22:42.354Z,97931.93
2019-03-28T09:25:12.502Z,97925.24
2019-03-28T09:27:40.748Z,97921.47
2019-03-28T09:30:09.639Z,97934.13
2019-03-28T09:32:38.080Z,97931.70
2019-03-28T09:35:09.378Z,97930.66
2019-03-28T09:37:37.296Z,97932.72
2019-03-28T09:40:06.195Z,97932.75
2019-03-28T09:42:34.181Z,97936.28
2019-03-28T09:45:03.112Z,97932.33
2019-03-28T09:47:31.682Z,97915.02
2019-03-28T09:50:00.421Z,97921.31
2019-03-28T09:52:28.683Z,97916.59
2019-03-28T09:54:58.942Z,97908.26
2019-03-28T09:57:27.453Z,97921.61
2019-03-28T09:59:55.550Z,97917.78
2019-03-28T10:02:24.112Z,97913.77
2019-03-28T10:04:52.265Z,97914.20
2019-03-28T10:07:20.554Z,97915.17
2019-03-28T10:09:50.285Z,97923.56
2019-03-28T10:12:19.600Z,97922.91
2019-03-28T10:14:47.835Z,97919.51
2019-03-28T10:17:15.884Z,97920.22
2019-03-28T10:19:44.292Z,97919.09
2019-03-28T10:22:12.508Z,97917.31
2019-03-28T10:24:41.017Z,97908.66
2019-03-28T10:27:09.168Z,97916.00
2019-03-28T10:29:37.296Z,97907.92
2019-03-28T10:32:06.469Z,97910.13
2019-03-28T10:34:35.509Z,97902.23
2019-03-28T10:37:04.108Z,97911.72
2019-03-28T10:39:34.342Z,97909.98
2019-03-28T10:42:02.104Z,97912.02
2019-03-28T10:44:30.941Z,97916.35
2019-03-28T10:46:59.666Z,97906.27
2019-03-28T10:49:27.778Z,97908.30
2019-03-28T10:51:56.588Z,97909.61
2019-03-28T10:54:25.898Z,97911.21
2019-03-28T10:56:57.517Z,97913.45
2019-03-28T10:59:27.520Z,97915.89
2019-03-28T11:01:55.852Z,97914.19
2019-03-28T11:04:24.374Z,97909.75
2019-03-28T11:06:53.039Z,97904.59
2019-03-28T11:09:21.441Z,97910.34
2019-03-28T11:11:49.283Z,97912.94
2019-03-28T11:14:17.756Z,97905.51
2019-03-28T11:16:48.211Z,97911.33
2019-03-28T11:19:16.871Z,97912.27
2019-03-28T11:21:46.765Z,97914.67
2019-03-28T11:24:14.879Z,97907.34
2019-03-28T11:26:42.970Z,97907.02
2019-03-28T11:29:11.575Z,97904.67
2019-03-28T11:31:46.875Z,97893.49
2019-03-28T11:34:12.797Z,97900.14
2019-03-28T11:36:41.445Z,97907.84
2019-03-28T11:39:10.056Z,97893.56
2019-03-28T11:41:38.349Z,97899.34
2019-03-28T11:44:06.127Z,97899.97
2019-03-28T11:46:34.488Z,97890.03
2019-03-28T11:49:02.531Z,97882.59
2019-03-28T11:51:31.255Z,97891.20
2019-03-28T11:53:59.715Z,97882.52
2019-03-28T11:56:27.921Z,97884.16
2019-03-28T11:58:56.284Z,97885.13
2019-03-28T12:01:24.350Z,97885.70
2019-03-28T12:03:52.940Z,97882.32
2019-03-28T12:06:21.124Z,97874.42
2019-03-28T12:08:49.153Z,97874.67
2019-03-28T12:11:18.231Z,97872.20
2019-03-28T12:13:46.312Z,97873.58
2019-03-28T12:16:14.841Z,97870.73
2019-03-28T12:18:43.511Z,97865.91
2019-03-28T12:21:11.796Z,97862.23
2019-03-28T12:23:40.252Z,97864.45
2019-03-28T12:26:08.232Z,97848.38
2019-03-28T12:28:37.367Z,97852.80
2019-03-28T12:31:06.465Z,97845.94
2019-03-28T12:33:34.787Z,97845.36
2019-03-28T12:36:03.902Z,97851.20
2019-03-28T12:38:31.671Z,97848.08
2019-03-28T12:41:00.602Z,97851.83
2019-03-28T12:43:29.215Z,97845.81
2019-03-28T12:46:00.993Z,97844.87
2019-03-28T12:48:29.160Z,97836.63
2019-03-28T12:50:59.019Z,97844.23
2019-03-28T12:53:28.401Z,97841.36
2019-03-28T12:55:57.223Z,97833.22
2019-03-28T12:58:25.018Z,97833.95
2019-03-28T13:00:53.035Z,97830.78
2019-03-28T13:03:21.557Z,97826.14
2019-03-28T13:05:51.343Z,97833.72
2019-03-28T13:08:19.772Z,97827.52
2019-03-28T13:10:48.263Z,97829.57
2019-03-28T13:13:17.584Z,97836.54
2019-03-28T13:15:45.719Z,97819.97
2019-03-28T13:18:14.391Z,97833.58
2019-03-28T13:20:42.999Z,97827.00
2019-03-28T13:23:11.049Z,97828.41
2019-03-28T13:25:39.471Z,97818.82
2019-03-28T13:28:07.575Z,97820.16
2019-03-28T13:30:36.282Z,97814.55
2019-03-28T13:33:04.187Z,97818.53
2019-03-28T13:35:35.138Z,97820.33
2019-03-28T13:38:04.462Z,97816.34
2019-03-28T13:40:32.212Z,97808.89
2019-03-28T13:43:01.195Z,97812.17
2019-03-28T13:45:29.442Z,97809.67
2019-03-28T13:47:57.248Z,97807.39
2019-03-28T13:50:25.267Z,97808.95
2019-03-28T13:52:54.271Z,97797.21
2019-03-28T13:55:22.846Z,97802.82
2019-03-28T13:57:52.347Z,97800.44
2019-03-28T14:00:31.893Z,97797.20
2019-03-28T14:03:01.654Z,97801.36
2019-03-28T14:05:29.880Z,97804.20
2019-03-28T14:07:58.266Z,97807.41
2019-03-28T14:10:26.312Z,97806.41
2019-03-28T14:12:54.745Z,97805.09
2019-03-28T14:15:22.789Z,97802.60
2019-03-28T14:17:50.970Z,97805.40
2019-03-28T14:20:22.198Z,97809.06
2019-03-28T14:22:49.253Z,97807.14
2019-03-28T14:25:17.823Z,97804.23
2019-03-28T14:27:45.834Z,97800.30
2019-03-28T14:30:14.420Z,97796.07
2019-03-28T14:32:53.283Z,97793.05
2019-03-28T14:35:13.083Z,97799.59
2019-03-28T14:37:41.304Z,97798.22
2019-03-28T14:40:10.026Z,97791.90
2019-03-28T14:42:38.119Z,97789.01
2019-03-28T14:45:08.381Z,97789.85
2019-03-28T14:47:37.792Z,97792.39
2019-03-28T14:50:07.243Z,97796.26
2019-03-28T14:52:35.295Z,97784.45
2019-03-28T14:55:04.419Z,97792.48
2019-03-28T14:57:32.558Z,97793.67
2019-03-28T15:00:02.898Z,97787.27
2019-03-28T15:02:31.269Z,97784.05
2019-03-28T15:05:00.042Z,97785.47
2019-03-28T15:07:28.252Z,97785.56
2019-03-28T15:09:56.021Z,97785.22
2019-03-28T15:12:25.125Z,97792.45
2019-03-28T15:14:54.203Z,97789.70
2019-03-28T15:17:22.679Z,97792.19
2019-03-28T15:19:53.572Z,97790.94
2019-03-28T15:22:25.085Z,97786.69
2019-03-28T15:24:53.972Z,97791.28
2019-03-28T15:27:23.203Z,97784.70
2019-03-28T15:29:50.998Z,97796.17
2019-03-28T15:32:19.723Z,97795.89
2019-03-28T15:34:48.289Z,97798.30
2019-03-28T15:37:17.010Z,97800.95
2019-03-28T15:39:45.950Z,97797.84
2019-03-28T15:42:14.277Z,97797.71
2019-03-28T15:44:42.295Z,97795.34
2019-03-28T15:47:10.646Z,97803.91
2019-03-28T15:49:38.329Z,97801.27
2019-03-28T15:52:06.843Z,97802.99
2019-03-28T15:54:35.995Z,97801.89
2019-03-28T15:57:04.619Z,97798.75
2019-03-28T15:59:34.691Z,97800.83
2019-03-28T16:02:03.585Z,97799.76
2019-03-28T16:04:32.325Z,97795.32
2019-03-28T16:07:02.020Z,97798.55
2019-03-28T16:09:30.582Z,97797.58
2019-03-28T16:12:02.731Z,97794.22
2019-03-28T16:14:29.080Z,97799.71
2019-03-28T16:16:57.179Z,97795.63
2019-03-28T16:19:25.304Z,97798.25
2019-03-28T16:21:54.247Z,97797.42
2019-03-28T16:24:24.693Z,97804.97
2019-03-28T16:26:55.142Z,97811.83
2019-03-28T16:29:24.846Z,97801.69
2019-03-28T16:31:53.236Z,97803.69
2019-03-28T16:34:21.428Z,97802.59
2019-03-28T16:36:50.739Z,97807.84
2019-03-28T16:39:19.066Z,97814.77
2019-03-28T16:41:49.109Z,97809.48
2019-03-28T16:44:18.375Z,97813.22
2019-03-28T16:46:46.387Z,97815.86
2019-03-28T16:49:14.487Z,97812.22
2019-03-28T16:51:43.643Z,97816.53
2019-03-28T16:54:12.215Z,97811.08
2019-03-28T16:56:40.541Z,97823.62
2019-03-28T16:59:09.215Z,97814.47
2019-03-28T17:01:37.448Z,97812.04
2019-03-28T17:04:20.088Z,97829.27
2019-03-28T17:06:38.039Z,97820.59
2019-03-28T17:09:07.186Z,97834.56
2019-03-28T17:11:35.694Z,97825.41
2019-03-28T17:14:03.750Z,97831.20
2019-03-28T17:16:31.764Z,97829.73
2019-03-28T17:19:00.196Z,97829.41
2019-03-28T17:21:28.801Z,97834.27
2019-03-28T17:23:56.923Z,97833.28
2019-03-28T17:26:25.091Z,97833.48
2019-03-28T17:28:53.317Z,97829.39
2019-03-28T17:31:22.273Z,97834.59
2019-03-28T17:33:50.608Z,97836.72
2019-03-28T17:36:19.107Z,97840.97
2019-03-28T17:38:48.487Z,97839.02
2019-03-28T17:41:17.693Z,97843.92
2019-03-28T17:43:46.325Z,97842.55
2019-03-28T17:46:16.006Z,97850.92
2019-03-28T17:48:44.357Z,97851.61
2019-03-28T17:51:13.052Z,97848.50
2019-03-28T17:53:41.587Z,97851.25
2019-03-28T17:56:12.873Z,97860.39
2019-03-28T17:58:45.355Z,97859.55
2019-03-28T18:01:16.540Z,97864.46
2019-03-28T18:03:46.988Z,97861.75
2019-03-28T18:06:17.357Z,97863.19
2019-03-28T18:08:47.938Z,97858.40
2019-03-28T18:11:17.723Z,97870.33
2019-03-28T18:13:46.375Z,97865.87
2019-03-28T18:16:15.208Z,97868.50
2019-03-28T18:18:47.545Z,97875.44
2019-03-28T18:21:15.587Z,97875.44
2019-03-28T18:23:43.535Z,97875.16
2019-03-28T18:26:12.364Z,97877.91
2019-03-28T18:28:40.583Z,97879.98
2019-03-28T18:31:09.337Z,97876.64
2019-03-28T18:33:37.407Z,97877.67
2019-03-28T18:36:05.956Z,97875.99
2019-03-28T18:38:34.464Z,97885.09
2019-03-28T18:41:03.125Z,97883.25
2019-03-28T18:43:31.654Z,97882.70
2019-03-28T18:46:01.113Z,97884.97
2019-03-28T18:48:35.901Z,97890.70
2019-03-28T18:51:01.002Z,97885.27
2019-03-28T18:53:29.262Z,97890.54
2019-03-28T18:55:57.795Z,97884.41
2019-03-28T18:58:25.907Z,97879.25
2019-03-28T19:00:54.386Z,97877.30
2019-03-28T19:03:23.130Z,97877.83
2019-03-28T19:05:52.170Z,97883.00
2019-03-28T19:08:20.420Z,97876.42
2019-03-28T19:10:51.050Z,97880.73
2019-03-28T19:13:18.457Z,97881.89
2019-03-28T19:15:46.613Z,97873.34
2019-03-28T19:18:15.270Z,97873.91
2019-03-28T19:20:44.891Z,97879.64
2019-03-28T19:23:13.906Z,97873.55
2019-03-28T19:25:59.252Z,97885.39
2019-03-28T19:28:29.611Z,97888.86
2019-03-28T19:30:58.982Z,97884.63
2019-03-28T19:33:26.942Z,97892.16
2019-03-28T19:35:54.950Z,97897.62
2019-03-28T19:38:23.400Z,97902.41
2019-03-28T19:40:52.876Z,97898.57
2019-03-28T19:43:22.949Z,97903.47
2019-03-28T19:45:52.508Z,97905.70
2019-03-28T19:48:20.993Z,97898.50
2019-03-28T19:50:58.481Z,97905.92
2019-03-28T19:53:26.544Z,97906.79
2019-03-28T19:55:55.580Z,97901.72
2019-03-28T19:58:23.904Z,97902.47
2019-03-28T20:00:52.419Z,97903.42
2019-03-28T20:03:23.261Z,97902.77
2019-03-28T20:05:50.823Z,97913.84
2019-03-28T20:08:18.873Z,97910.09
2019-03-28T20:10:47.466Z,97908.60
2019-03-28T20:13:17.828Z,97904.66
2019-03-28T20:15:45.588Z,97912.01
2019-03-28T20:18:13.494Z,97909.55
2019-03-28T20:20:43.467Z,97915.37
2019-03-28T20:23:12.635Z,97911.36
2019-03-28T20:25:43.272Z,97916.62
2019-03-28T20:28:14.265Z,97913.41
2019-03-28T20:30:45.129Z,97913.89
2019-03-28T20:33:14.210Z,97909.83
2019-03-28T20:35:42.607Z,97912.39
2019-03-28T20:38:10.650Z,97907.98
2019-03-28T20:40:38.742Z,97915.56
2019-03-28T20:43:08.052Z,97912.27
2019-03-28T20:45:36.950Z,97913.98
2019-03-28T20:48:06.695Z,97913.59
2019-03-28T20:50:34.803Z,97924.87
2019-03-28T20:53:03.324Z,97919.05
2019-03-28T20:55:31.575Z,97919.24
2019-03-28T20:58:00.316Z,97922.61
2019-03-28T21:00:40.777Z,97918.67
2019-03-28T21:03:09.514Z,97922.30
2019-03-28T21:05:37.948Z,97926.72
2019-03-28T21:08:07.492Z,97931.32
2019-03-28T21:10:36.369Z,97931.13
2019-03-28T21:13:04.667Z,97931.90
2019-03-28T21:15:32.840Z,97932.81
2019-03-28T21:18:01.085Z,97931.97
2019-03-28T21:20:29.282Z,97933.88
2019-03-28T21:22:57.781Z,97936.20
2019-03-28T21:25:25.508Z,97941.83
2019-03-28T21:27:55.167Z,97936.58
2019-03-28T21:30:22.921Z,97939.76
2019-03-28T21:32:55.629Z,97931.33
2019-03-28T21:35:22.649Z,97926.72
2019-03-28T21:37:51.581Z,97919.50
2019-03-28T21:40:19.667Z,97926.62
2019-03-28T21:42:48.086Z,97919.68
2019-03-28T21:45:16.026Z,97923.62
2019-03-28T21:47:43.787Z,97922.86
2019-03-28T21:50:12.071Z,97924.94
2019-03-28T21:52:40.302Z,97928.51
2019-03-28T21:55:11.640Z,97927.55
2019-03-28T21:57:38.804Z,97931.97
2019-03-28T22:00:07.256Z,97926.13
2019-03-28T22:02:35.995Z,97926.78
2019-03-28T22:05:04.315Z,97922.66
2019-03-28T22:07:32.343Z,97914.05
2019-03-28T22:10:00.645Z,97915.44
2019-03-28T22:12:29.980Z,97910.66
2019-03-28T22:14:58.746Z,97906.79
2019-03-28T22:17:28.185Z,97905.29
2019-03-28T22:19:56.458Z,97906.23
2019-03-28T22:22:26.444Z,97906.13
2019-03-28T22:24:54.228Z,97903.60
2019-03-28T22:27:22.798Z,97910.90
2019-03-28T22:29:50.916Z,97899.73
2019-03-28T22:32:19.092Z,97896.38
2019-03-28T22:34:47.464Z,97897.58
2019-03-28T22:37:16.900Z,97884.63
2019-03-28T22:39:46.311Z,97889.15
2019-03-28T22:42:15.104Z,97887.07
2019-03-28T22:44:43.099Z,97880.21
2019-03-28T22:47:11.464Z,97885.86
2019-03-28T22:49:40.461Z,97879.11
2019-03-28T22:52:09.340Z,97883.23
2019-03-28T22:54:38.332Z,97890.26
2019-03-28T22:57:08.779Z,97890.26
2019-03-28T22:59:37.091Z,97884.24
2019-03-28T23:02:06.447Z,97885.85
2019-03-28T23:04:36.295Z,97881.80
2019-03-28T23:07:10.734Z,97871.77
2019-03-28T23:09:34.598Z,97879.34
2019-03-28T23:12:03.642Z,97876.23
2019-03-28T23:14:31.671Z,97874.91
2019-03-28T23:17:00.667Z,97875.08
2019-03-28T23:19:32.277Z,97869.74
2019-03-28T23:22:00.171Z,97875.06
2019-03-28T23:24:27.919Z,97869.98
2019-03-28T23:26:56.061Z,97872.69
2019-03-28T23:29:24.617Z,97872.91
2019-03-28T23:31:52.494Z,97874.89
2019-03-28T23:34:20.732Z,97873.89
2019-03-28T23:36:48.823Z,97869.57
2019-03-28T23:39:19.234Z,97868.22
2019-03-28T23:41:47.927Z,97870.91
2019-03-28T23:44:16.366Z,97865.69
2019-03-28T23:46:44.239Z,97862.23
2019-03-28T23:49:12.339Z,97869.56
2019-03-28T23:51:40.542Z,97868.83
2019-03-28T23:54:08.311Z,97870.61
2019-03-28T23:56:36.985Z,97870.83
2019-03-28T23:59:06.502Z,97871.39
